sensor_id;sensor_type;location;lat;lon;timestamp;temperature;humidity
64396;DHT22;50717;53.360;6.290;2022-09-09T00:02:25;14.60;99.90
64396;DHT22;50717;53.360;6.290;2022-09-09T00:07:51;14.70;99.90
64396;DHT22;50717;53.360;6.290;2022-09-09T00:12:57;14.80;99.90
64396;DHT22;50717;53.360;6.290;2022-09-09T00:16:04;14.50;99.90
64396;DHT22;50717;53.360;6.290;2022-09-09T00:18:37;14.70;99.90
64396;DHT22;50717;53.360;6.290;2022-09-09T00:21:06;14.40;99.90
64396;DHT22;50717;53.360;6.290;2022-09-09T00:23:39;14.50;99.90
64396;DHT22;50717;53.360;6.290;2022-09-09T00:32:13;14.30;99.90
64396;DHT22;50717;53.360;6.290;2022-09-09T00:34:49;14.60;99.90
64396;DHT22;50717;53.360;6.290;2022-09-09T00:37:16;14.50;99.90
64396;DHT22;50717;53.360;6.290;2022-09-09T00:39:46;14.40;99.90
64396;DHT22;50717;53.360;6.290;2022-09-09T00:42:14;14.40;99.90
64396;DHT22;50717;53.360;6.290;2022-09-09T00:47:51;14.10;99.90
64396;DHT22;50717;53.360;6.290;2022-09-09T00:56:09;14.00;99.90
64396;DHT22;50717;53.360;6.290;2022-09-09T00:58:37;14.10;99.90
64396;DHT22;50717;53.360;6.290;2022-09-09T01:01:04;14.40;99.90
64396;DHT22;50717;53.360;6.290;2022-09-09T01:03:49;14.10;99.90
64396;DHT22;50717;53.360;6.290;2022-09-09T01:06:31;14.20;99.90
64396;DHT22;50717;53.360;6.290;2022-09-09T01:17:20;13.90;99.90
64396;DHT22;50717;53.360;6.290;2022-09-09T01:20:08;14.30;99.90
64396;DHT22;50717;53.360;6.290;2022-09-09T01:28:27;14.10;99.90
64396;DHT22;50717;53.360;6.290;2022-09-09T01:30:54;13.90;99.90
64396;DHT22;50717;53.360;6.290;2022-09-09T01:33:20;13.70;99.90
64396;DHT22;50717;53.360;6.290;2022-09-09T01:36:24;14.20;99.90
64396;DHT22;50717;53.360;6.290;2022-09-09T01:38:41;13.60;99.90
64396;DHT22;50717;53.360;6.290;2022-09-09T01:41:07;13.70;99.90
64396;DHT22;50717;53.360;6.290;2022-09-09T01:43:33;13.70;99.90
64396;DHT22;50717;53.360;6.290;2022-09-09T01:46:01;15.10;99.90
64396;DHT22;50717;53.360;6.290;2022-09-09T01:48:27;13.80;99.90
64396;DHT22;50717;53.360;6.290;2022-09-09T01:50:53;14.60;99.90
64396;DHT22;50717;53.360;6.290;2022-09-09T01:53:22;13.70;99.90
64396;DHT22;50717;53.360;6.290;2022-09-09T01:58:38;13.70;99.90
64396;DHT22;50717;53.360;6.290;2022-09-09T02:01:33;14.40;99.90
64396;DHT22;50717;53.360;6.290;2022-09-09T02:04:10;13.70;99.90
64396;DHT22;50717;53.360;6.290;2022-09-09T02:06:41;13.90;99.90
64396;DHT22;50717;53.360;6.290;2022-09-09T02:09:08;13.80;99.90
64396;DHT22;50717;53.360;6.290;2022-09-09T02:11:35;13.50;99.90
64396;DHT22;50717;53.360;6.290;2022-09-09T02:14:10;13.80;99.90
64396;DHT22;50717;53.360;6.290;2022-09-09T02:16:42;13.70;99.90
64396;DHT22;50717;53.360;6.290;2022-09-09T02:19:19;14.10;99.90
64396;DHT22;50717;53.360;6.290;2022-09-09T02:21:55;13.80;99.90
64396;DHT22;50717;53.360;6.290;2022-09-09T02:24:22;13.50;99.90
64396;DHT22;50717;53.360;6.290;2022-09-09T02:26:50;13.60;99.90
64396;DHT22;50717;53.360;6.290;2022-09-09T02:29:21;13.80;99.90
64396;DHT22;50717;53.360;6.290;2022-09-09T02:31:49;13.60;99.90
64396;DHT22;50717;53.360;6.290;2022-09-09T02:34:18;13.60;99.90
64396;DHT22;50717;53.360;6.290;2022-09-09T02:36:46;13.70;99.90
64396;DHT22;50717;53.360;6.290;2022-09-09T02:39:13;13.60;99.90
64396;DHT22;50717;53.360;6.290;2022-09-09T02:41:41;14.00;99.90
64396;DHT22;50717;53.360;6.290;2022-09-09T02:44:25;14.10;99.90
64396;DHT22;50717;53.360;6.290;2022-09-09T02:47:10;13.60;99.90
64396;DHT22;50717;53.360;6.290;2022-09-09T02:55:28;13.50;99.90
64396;DHT22;50717;53.360;6.290;2022-09-09T02:57:55;13.60;99.90
64396;DHT22;50717;53.360;6.290;2022-09-09T03:00:25;13.40;99.90
64396;DHT22;50717;53.360;6.290;2022-09-09T03:02:51;13.50;99.90
64396;DHT22;50717;53.360;6.290;2022-09-09T03:05:17;13.30;99.90
64396;DHT22;50717;53.360;6.290;2022-09-09T03:07:43;13.50;99.90
64396;DHT22;50717;53.360;6.290;2022-09-09T03:10:08;13.60;99.90
64396;DHT22;50717;53.360;6.290;2022-09-09T03:12:36;13.70;99.90
64396;DHT22;50717;53.360;6.290;2022-09-09T03:15:01;13.70;99.90
64396;DHT22;50717;53.360;6.290;2022-09-09T03:17:27;13.20;99.90
64396;DHT22;50717;53.360;6.290;2022-09-09T03:19:53;13.50;99.90
64396;DHT22;50717;53.360;6.290;2022-09-09T03:22:20;13.70;99.90
64396;DHT22;50717;53.360;6.290;2022-09-09T03:24:46;13.60;99.90
64396;DHT22;50717;53.360;6.290;2022-09-09T03:27:12;13.50;99.90
64396;DHT22;50717;53.360;6.290;2022-09-09T03:29:39;13.80;99.90
64396;DHT22;50717;53.360;6.290;2022-09-09T03:32:05;14.20;99.90
64396;DHT22;50717;53.360;6.290;2022-09-09T03:34:31;13.90;99.90
64396;DHT22;50717;53.360;6.290;2022-09-09T03:36:57;14.00;99.90
64396;DHT22;50717;53.360;6.290;2022-09-09T03:39:22;13.70;99.90
64396;DHT22;50717;53.360;6.290;2022-09-09T03:41:48;13.90;99.90
64396;DHT22;50717;53.360;6.290;2022-09-09T03:44:14;13.90;99.90
64396;DHT22;50717;53.360;6.290;2022-09-09T03:46:39;14.20;99.90
64396;DHT22;50717;53.360;6.290;2022-09-09T03:49:05;13.80;99.90
64396;DHT22;50717;53.360;6.290;2022-09-09T03:51:31;13.50;99.90
64396;DHT22;50717;53.360;6.290;2022-09-09T03:53:57;13.90;99.90
64396;DHT22;50717;53.360;6.290;2022-09-09T03:56:24;13.50;99.90
64396;DHT22;50717;53.360;6.290;2022-09-09T03:58:50;13.60;99.90
64396;DHT22;50717;53.360;6.290;2022-09-09T04:01:15;13.40;99.90
64396;DHT22;50717;53.360;6.290;2022-09-09T04:03:43;13.50;99.90
64396;DHT22;50717;53.360;6.290;2022-09-09T04:06:11;13.90;99.90
64396;DHT22;50717;53.360;6.290;2022-09-09T04:08:39;13.40;99.90
64396;DHT22;50717;53.360;6.290;2022-09-09T04:11:05;13.50;99.90
64396;DHT22;50717;53.360;6.290;2022-09-09T04:13:35;13.60;99.90
64396;DHT22;50717;53.360;6.290;2022-09-09T04:16:03;13.70;99.90
64396;DHT22;50717;53.360;6.290;2022-09-09T04:18:29;13.40;99.90
64396;DHT22;50717;53.360;6.290;2022-09-09T04:20:55;13.80;99.90
64396;DHT22;50717;53.360;6.290;2022-09-09T04:23:23;13.60;99.90
64396;DHT22;50717;53.360;6.290;2022-09-09T04:25:54;14.30;99.90
64396;DHT22;50717;53.360;6.290;2022-09-09T04:28:22;13.50;99.90
64396;DHT22;50717;53.360;6.290;2022-09-09T04:30:48;13.80;99.90
64396;DHT22;50717;53.360;6.290;2022-09-09T04:33:14;13.50;99.90
64396;DHT22;50717;53.360;6.290;2022-09-09T04:35:44;13.60;99.90
64396;DHT22;50717;53.360;6.290;2022-09-09T04:38:10;13.80;99.90
64396;DHT22;50717;53.360;6.290;2022-09-09T04:40:35;13.90;99.90
64396;DHT22;50717;53.360;6.290;2022-09-09T04:43:02;13.50;99.90
64396;DHT22;50717;53.360;6.290;2022-09-09T04:45:30;13.80;99.90
64396;DHT22;50717;53.360;6.290;2022-09-09T04:47:57;14.70;99.90
64396;DHT22;50717;53.360;6.290;2022-09-09T04:50:22;14.50;99.90
64396;DHT22;50717;53.360;6.290;2022-09-09T04:52:48;13.80;99.90
64396;DHT22;50717;53.360;6.290;2022-09-09T04:55:14;13.90;99.90
64396;DHT22;50717;53.360;6.290;2022-09-09T04:57:40;14.10;99.90
64396;DHT22;50717;53.360;6.290;2022-09-09T05:00:06;14.40;99.90
64396;DHT22;50717;53.360;6.290;2022-09-09T05:02:32;14.20;99.90
64396;DHT22;50717;53.360;6.290;2022-09-09T05:04:58;13.70;99.90
64396;DHT22;50717;53.360;6.290;2022-09-09T05:07:24;13.90;99.90
64396;DHT22;50717;53.360;6.290;2022-09-09T05:09:51;12.90;99.90
64396;DHT22;50717;53.360;6.290;2022-09-09T05:12:17;14.40;99.90
64396;DHT22;50717;53.360;6.290;2022-09-09T05:14:43;14.20;99.90
64396;DHT22;50717;53.360;6.290;2022-09-09T05:17:09;13.90;99.90
64396;DHT22;50717;53.360;6.290;2022-09-09T05:19:36;14.30;99.90
64396;DHT22;50717;53.360;6.290;2022-09-09T05:22:02;14.30;99.90
64396;DHT22;50717;53.360;6.290;2022-09-09T05:24:28;14.10;99.90
64396;DHT22;50717;53.360;6.290;2022-09-09T05:26:53;14.20;99.90
64396;DHT22;50717;53.360;6.290;2022-09-09T05:29:19;14.20;99.90
64396;DHT22;50717;53.360;6.290;2022-09-09T05:31:45;14.00;99.90
64396;DHT22;50717;53.360;6.290;2022-09-09T05:34:12;13.70;99.90
64396;DHT22;50717;53.360;6.290;2022-09-09T05:36:38;14.10;99.90
64396;DHT22;50717;53.360;6.290;2022-09-09T05:39:04;15.40;99.90
64396;DHT22;50717;53.360;6.290;2022-09-09T05:41:29;14.10;99.90
64396;DHT22;50717;53.360;6.290;2022-09-09T05:43:56;14.10;99.90
64396;DHT22;50717;53.360;6.290;2022-09-09T05:46:22;13.90;99.90
64396;DHT22;50717;53.360;6.290;2022-09-09T05:48:50;13.90;99.90
64396;DHT22;50717;53.360;6.290;2022-09-09T05:51:19;14.40;99.90
64396;DHT22;50717;53.360;6.290;2022-09-09T05:53:47;14.10;99.90
64396;DHT22;50717;53.360;6.290;2022-09-09T05:56:14;14.00;99.90
64396;DHT22;50717;53.360;6.290;2022-09-09T05:58:40;14.10;99.90
64396;DHT22;50717;53.360;6.290;2022-09-09T06:03:40;14.20;99.90
64396;DHT22;50717;53.360;6.290;2022-09-09T06:06:09;14.10;99.90
64396;DHT22;50717;53.360;6.290;2022-09-09T06:08:40;14.20;99.90
64396;DHT22;50717;53.360;6.290;2022-09-09T06:13:32;14.20;99.90
64396;DHT22;50717;53.360;6.290;2022-09-09T06:15:58;14.30;99.90
64396;DHT22;50717;53.360;6.290;2022-09-09T06:18:24;14.40;99.90
64396;DHT22;50717;53.360;6.290;2022-09-09T06:21:01;14.10;99.90
64396;DHT22;50717;53.360;6.290;2022-09-09T06:23:29;14.00;99.90
64396;DHT22;50717;53.360;6.290;2022-09-09T06:26:06;14.40;99.90
64396;DHT22;50717;53.360;6.290;2022-09-09T06:28:34;14.50;99.90
64396;DHT22;50717;53.360;6.290;2022-09-09T06:31:06;14.20;99.90
64396;DHT22;50717;53.360;6.290;2022-09-09T06:33:37;14.40;99.90
64396;DHT22;50717;53.360;6.290;2022-09-09T06:36:05;14.20;99.90
64396;DHT22;50717;53.360;6.290;2022-09-09T06:38:31;14.30;99.90
64396;DHT22;50717;53.360;6.290;2022-09-09T06:40:59;14.40;99.90
64396;DHT22;50717;53.360;6.290;2022-09-09T06:43:25;14.50;99.90
64396;DHT22;50717;53.360;6.290;2022-09-09T06:46:02;14.60;99.90
64396;DHT22;50717;53.360;6.290;2022-09-09T06:48:28;14.60;99.90
64396;DHT22;50717;53.360;6.290;2022-09-09T06:51:05;14.30;99.90
64396;DHT22;50717;53.360;6.290;2022-09-09T06:53:32;14.70;99.90
64396;DHT22;50717;53.360;6.290;2022-09-09T06:56:13;14.70;99.90
64396;DHT22;50717;53.360;6.290;2022-09-09T06:58:43;14.40;99.90
64396;DHT22;50717;53.360;6.290;2022-09-09T07:01:14;14.50;99.90
64396;DHT22;50717;53.360;6.290;2022-09-09T07:03:41;14.80;99.90
64396;DHT22;50717;53.360;6.290;2022-09-09T07:06:12;15.10;99.90
64396;DHT22;50717;53.360;6.290;2022-09-09T07:08:40;15.10;99.90
64396;DHT22;50717;53.360;6.290;2022-09-09T07:11:08;15.10;99.90
64396;DHT22;50717;53.360;6.290;2022-09-09T07:13:34;15.20;99.90
64396;DHT22;50717;53.360;6.290;2022-09-09T07:16:05;15.00;99.90
64396;DHT22;50717;53.360;6.290;2022-09-09T07:18:31;15.20;99.90
64396;DHT22;50717;53.360;6.290;2022-09-09T07:20:57;15.40;99.90
64396;DHT22;50717;53.360;6.290;2022-09-09T07:23:23;16.20;99.90
64396;DHT22;50717;53.360;6.290;2022-09-09T07:25:49;15.50;99.90
64396;DHT22;50717;53.360;6.290;2022-09-09T07:28:16;15.50;99.90
64396;DHT22;50717;53.360;6.290;2022-09-09T07:30:42;15.40;99.90
64396;DHT22;50717;53.360;6.290;2022-09-09T07:33:08;15.30;99.90
64396;DHT22;50717;53.360;6.290;2022-09-09T07:35:35;15.40;99.90
64396;DHT22;50717;53.360;6.290;2022-09-09T07:38:02;15.50;99.90
64396;DHT22;50717;53.360;6.290;2022-09-09T07:40:32;15.90;99.90
64396;DHT22;50717;53.360;6.290;2022-09-09T07:42:59;15.70;99.90
64396;DHT22;50717;53.360;6.290;2022-09-09T07:45:25;15.60;99.90
64396;DHT22;50717;53.360;6.290;2022-09-09T07:47:53;15.90;99.90
64396;DHT22;50717;53.360;6.290;2022-09-09T07:50:21;15.70;99.90
64396;DHT22;50717;53.360;6.290;2022-09-09T07:52:47;15.80;99.90
64396;DHT22;50717;53.360;6.290;2022-09-09T07:55:12;16.20;99.90
64396;DHT22;50717;53.360;6.290;2022-09-09T07:57:38;16.00;99.90
64396;DHT22;50717;53.360;6.290;2022-09-09T08:00:04;16.00;99.90
64396;DHT22;50717;53.360;6.290;2022-09-09T08:02:30;16.10;99.90
64396;DHT22;50717;53.360;6.290;2022-09-09T08:04:55;16.10;99.90
64396;DHT22;50717;53.360;6.290;2022-09-09T08:07:22;16.00;99.90
64396;DHT22;50717;53.360;6.290;2022-09-09T08:09:47;16.20;99.90
64396;DHT22;50717;53.360;6.290;2022-09-09T08:12:13;16.20;99.90
64396;DHT22;50717;53.360;6.290;2022-09-09T08:14:39;16.30;99.90
64396;DHT22;50717;53.360;6.290;2022-09-09T08:17:05;16.00;99.90
64396;DHT22;50717;53.360;6.290;2022-09-09T08:19:31;16.10;99.90
64396;DHT22;50717;53.360;6.290;2022-09-09T08:21:59;16.00;99.90
64396;DHT22;50717;53.360;6.290;2022-09-09T08:24:27;16.20;99.90
64396;DHT22;50717;53.360;6.290;2022-09-09T08:26:52;16.20;99.90
64396;DHT22;50717;53.360;6.290;2022-09-09T08:29:19;16.30;99.90
64396;DHT22;50717;53.360;6.290;2022-09-09T08:31:51;16.00;99.90
64396;DHT22;50717;53.360;6.290;2022-09-09T08:34:20;15.80;99.90
64396;DHT22;50717;53.360;6.290;2022-09-09T08:36:47;16.10;99.90
64396;DHT22;50717;53.360;6.290;2022-09-09T08:39:15;16.10;99.90
64396;DHT22;50717;53.360;6.290;2022-09-09T08:52:27;16.50;99.90
64396;DHT22;50717;53.360;6.290;2022-09-09T08:54:58;16.90;99.90
64396;DHT22;50717;53.360;6.290;2022-09-09T08:57:28;16.70;99.90
64396;DHT22;50717;53.360;6.290;2022-09-09T08:59:56;17.10;99.90
64396;DHT22;50717;53.360;6.290;2022-09-09T09:05:23;17.10;99.90
64396;DHT22;50717;53.360;6.290;2022-09-09T09:08:03;17.10;99.90
64396;DHT22;50717;53.360;6.290;2022-09-09T09:13:20;17.50;99.90
64396;DHT22;50717;53.360;6.290;2022-09-09T09:15:56;17.70;99.90
64396;DHT22;50717;53.360;6.290;2022-09-09T09:18:23;18.00;99.90
64396;DHT22;50717;53.360;6.290;2022-09-09T09:23:26;18.30;99.90
64396;DHT22;50717;53.360;6.290;2022-09-09T09:25:58;18.20;99.90
64396;DHT22;50717;53.360;6.290;2022-09-09T09:28:28;18.30;99.90
64396;DHT22;50717;53.360;6.290;2022-09-09T09:31:01;18.10;99.90
64396;DHT22;50717;53.360;6.290;2022-09-09T09:33:42;17.90;99.90
64396;DHT22;50717;53.360;6.290;2022-09-09T09:36:12;18.30;99.90
64396;DHT22;50717;53.360;6.290;2022-09-09T09:38:52;18.20;99.90
64396;DHT22;50717;53.360;6.290;2022-09-09T09:43:57;18.30;99.90
64396;DHT22;50717;53.360;6.290;2022-09-09T09:46:24;18.70;99.90
64396;DHT22;50717;53.360;6.290;2022-09-09T09:49:02;18.60;99.90
64396;DHT22;50717;53.360;6.290;2022-09-09T09:51:30;18.50;99.90
64396;DHT22;50717;53.360;6.290;2022-09-09T09:54:14;18.20;99.90
64396;DHT22;50717;53.360;6.290;2022-09-09T09:56:43;18.20;99.90
64396;DHT22;50717;53.360;6.290;2022-09-09T10:02:05;18.40;99.90
64396;DHT22;50717;53.360;6.290;2022-09-09T10:04:31;18.40;99.90
64396;DHT22;50717;53.360;6.290;2022-09-09T10:06:58;18.30;99.90
64396;DHT22;50717;53.360;6.290;2022-09-09T10:09:35;18.50;99.90
64396;DHT22;50717;53.360;6.290;2022-09-09T10:17:44;18.10;99.90
64396;DHT22;50717;53.360;6.290;2022-09-09T10:20:58;18.40;99.90
64396;DHT22;50717;53.360;6.290;2022-09-09T10:29:18;18.20;99.90
64396;DHT22;50717;53.360;6.290;2022-09-09T10:34:45;18.10;99.90
64396;DHT22;50717;53.360;6.290;2022-09-09T10:46:43;18.80;99.90
64396;DHT22;50717;53.360;6.290;2022-09-09T10:49:31;18.90;99.90
64396;DHT22;50717;53.360;6.290;2022-09-09T10:55:11;19.30;99.90
64396;DHT22;50717;53.360;6.290;2022-09-09T10:57:51;19.70;99.90
64396;DHT22;50717;53.360;6.290;2022-09-09T11:00:23;20.00;99.90
64396;DHT22;50717;53.360;6.290;2022-09-09T11:03:01;20.00;99.90
64396;DHT22;50717;53.360;6.290;2022-09-09T11:05:40;19.90;99.90
64396;DHT22;50717;53.360;6.290;2022-09-09T11:08:15;19.90;99.90
64396;DHT22;50717;53.360;6.290;2022-09-09T11:13:40;20.30;99.90
64396;DHT22;50717;53.360;6.290;2022-09-09T11:18:49;21.00;99.90
64396;DHT22;50717;53.360;6.290;2022-09-09T11:21:23;20.70;99.90
64396;DHT22;50717;53.360;6.290;2022-09-09T11:23:56;21.20;99.90
64396;DHT22;50717;53.360;6.290;2022-09-09T11:27:32;20.90;99.90
64396;DHT22;50717;53.360;6.290;2022-09-09T11:38:29;20.40;99.90
64396;DHT22;50717;53.360;6.290;2022-09-09T11:41:04;21.10;99.90
64396;DHT22;50717;53.360;6.290;2022-09-09T11:46:06;21.20;99.90
64396;DHT22;50717;53.360;6.290;2022-09-09T11:48:35;20.90;99.90
64396;DHT22;50717;53.360;6.290;2022-09-09T11:51:08;21.00;99.90
64396;DHT22;50717;53.360;6.290;2022-09-09T11:53:35;20.70;99.90
64396;DHT22;50717;53.360;6.290;2022-09-09T11:56:13;20.40;99.90
64396;DHT22;50717;53.360;6.290;2022-09-09T11:59:04;20.60;99.90
64396;DHT22;50717;53.360;6.290;2022-09-09T12:01:41;20.80;99.90
64396;DHT22;50717;53.360;6.290;2022-09-09T12:04:27;20.70;99.90
64396;DHT22;50717;53.360;6.290;2022-09-09T12:11:45;21.00;99.90
64396;DHT22;50717;53.360;6.290;2022-09-09T12:14:42;20.70;99.90
64396;DHT22;50717;53.360;6.290;2022-09-09T12:17:24;20.50;99.90
64396;DHT22;50717;53.360;6.290;2022-09-09T12:32:06;20.00;99.90
64396;DHT22;50717;53.360;6.290;2022-09-09T12:36:42;20.60;99.90
64396;DHT22;50717;53.360;6.290;2022-09-09T12:39:18;20.90;99.90
64396;DHT22;50717;53.360;6.290;2022-09-09T12:41:52;21.30;99.90
64396;DHT22;50717;53.360;6.290;2022-09-09T12:44:25;21.50;99.90
64396;DHT22;50717;53.360;6.290;2022-09-09T12:46:54;21.00;99.90
64396;DHT22;50717;53.360;6.290;2022-09-09T12:49:37;21.20;99.90
64396;DHT22;50717;53.360;6.290;2022-09-09T12:52:07;21.00;99.90
64396;DHT22;50717;53.360;6.290;2022-09-09T12:54:36;21.00;99.90
64396;DHT22;50717;53.360;6.290;2022-09-09T12:57:04;21.10;99.90
64396;DHT22;50717;53.360;6.290;2022-09-09T12:59:38;21.30;99.90
64396;DHT22;50717;53.360;6.290;2022-09-09T13:02:25;21.60;99.90
64396;DHT22;50717;53.360;6.290;2022-09-09T13:04:51;22.20;99.90
64396;DHT22;50717;53.360;6.290;2022-09-09T13:07:20;22.10;99.90
64396;DHT22;50717;53.360;6.290;2022-09-09T13:09:48;21.90;99.90
64396;DHT22;50717;53.360;6.290;2022-09-09T13:12:22;21.90;99.90
64396;DHT22;50717;53.360;6.290;2022-09-09T13:14:55;22.30;99.90
64396;DHT22;50717;53.360;6.290;2022-09-09T13:17:24;22.40;99.90
64396;DHT22;50717;53.360;6.290;2022-09-09T13:19:51;22.30;99.90
64396;DHT22;50717;53.360;6.290;2022-09-09T13:27:39;22.30;99.90
64396;DHT22;50717;53.360;6.290;2022-09-09T13:30:30;22.20;99.90
64396;DHT22;50717;53.360;6.290;2022-09-09T13:33:21;22.60;99.90
64396;DHT22;50717;53.360;6.290;2022-09-09T13:35:54;22.80;99.90
64396;DHT22;50717;53.360;6.290;2022-09-09T13:38:20;23.00;99.90
64396;DHT22;50717;53.360;6.290;2022-09-09T13:41:18;22.90;99.90
64396;DHT22;50717;53.360;6.290;2022-09-09T13:43:47;22.60;99.90
64396;DHT22;50717;53.360;6.290;2022-09-09T13:46:33;22.40;99.90
64396;DHT22;50717;53.360;6.290;2022-09-09T13:54:00;21.40;99.90
64396;DHT22;50717;53.360;6.290;2022-09-09T13:56:26;21.50;99.90
64396;DHT22;50717;53.360;6.290;2022-09-09T13:58:52;21.30;99.90
64396;DHT22;50717;53.360;6.290;2022-09-09T14:01:18;21.00;99.90
64396;DHT22;50717;53.360;6.290;2022-09-09T14:03:43;20.80;99.90
64396;DHT22;50717;53.360;6.290;2022-09-09T14:06:10;20.90;99.90
64396;DHT22;50717;53.360;6.290;2022-09-09T14:08:36;21.00;99.90
64396;DHT22;50717;53.360;6.290;2022-09-09T14:11:06;20.90;99.90
64396;DHT22;50717;53.360;6.290;2022-09-09T14:13:32;20.80;99.90
64396;DHT22;50717;53.360;6.290;2022-09-09T14:15:58;20.90;99.90
64396;DHT22;50717;53.360;6.290;2022-09-09T14:18:24;20.90;99.90
64396;DHT22;50717;53.360;6.290;2022-09-09T14:20:51;20.60;99.90
64396;DHT22;50717;53.360;6.290;2022-09-09T14:23:17;20.80;99.90
64396;DHT22;50717;53.360;6.290;2022-09-09T14:25:43;21.00;99.90
64396;DHT22;50717;53.360;6.290;2022-09-09T14:28:10;20.70;99.90
64396;DHT22;50717;53.360;6.290;2022-09-09T14:30:40;20.60;99.90
64396;DHT22;50717;53.360;6.290;2022-09-09T14:33:08;20.50;99.90
64396;DHT22;50717;53.360;6.290;2022-09-09T14:35:35;19.80;99.90
64396;DHT22;50717;53.360;6.290;2022-09-09T14:38:02;20.00;99.90
64396;DHT22;50717;53.360;6.290;2022-09-09T14:40:28;19.50;99.90
64396;DHT22;50717;53.360;6.290;2022-09-09T14:42:53;19.00;99.90
64396;DHT22;50717;53.360;6.290;2022-09-09T14:45:19;18.50;99.90
64396;DHT22;50717;53.360;6.290;2022-09-09T14:47:46;18.40;99.90
64396;DHT22;50717;53.360;6.290;2022-09-09T14:50:12;18.40;99.90
64396;DHT22;50717;53.360;6.290;2022-09-09T14:52:39;18.20;99.90
64396;DHT22;50717;53.360;6.290;2022-09-09T14:55:05;18.00;99.90
64396;DHT22;50717;53.360;6.290;2022-09-09T14:57:31;18.00;99.90
64396;DHT22;50717;53.360;6.290;2022-09-09T14:59:57;18.30;99.90
64396;DHT22;50717;53.360;6.290;2022-09-09T15:02:22;18.60;99.90
64396;DHT22;50717;53.360;6.290;2022-09-09T15:04:48;18.30;99.90
64396;DHT22;50717;53.360;6.290;2022-09-09T15:07:16;18.70;99.90
64396;DHT22;50717;53.360;6.290;2022-09-09T15:09:42;19.10;99.90
64396;DHT22;50717;53.360;6.290;2022-09-09T15:12:08;18.80;99.90
64396;DHT22;50717;53.360;6.290;2022-09-09T15:14:33;19.10;99.90
64396;DHT22;50717;53.360;6.290;2022-09-09T15:17:00;19.00;99.90
64396;DHT22;50717;53.360;6.290;2022-09-09T15:19:26;19.40;99.90
64396;DHT22;50717;53.360;6.290;2022-09-09T15:21:52;19.70;99.90
64396;DHT22;50717;53.360;6.290;2022-09-09T15:24:18;19.50;99.90
64396;DHT22;50717;53.360;6.290;2022-09-09T15:26:43;19.00;99.90
64396;DHT22;50717;53.360;6.290;2022-09-09T15:29:09;19.20;99.90
64396;DHT22;50717;53.360;6.290;2022-09-09T15:31:35;19.30;99.90
64396;DHT22;50717;53.360;6.290;2022-09-09T15:34:04;19.10;99.90
64396;DHT22;50717;53.360;6.290;2022-09-09T15:36:35;20.10;99.90
64396;DHT22;50717;53.360;6.290;2022-09-09T15:39:02;20.80;99.90
64396;DHT22;50717;53.360;6.290;2022-09-09T15:41:29;20.80;99.90
64396;DHT22;50717;53.360;6.290;2022-09-09T15:43:56;21.00;99.90
64396;DHT22;50717;53.360;6.290;2022-09-09T15:46:29;20.70;99.90
64396;DHT22;50717;53.360;6.290;2022-09-09T15:51:32;20.10;99.90
64396;DHT22;50717;53.360;6.290;2022-09-09T15:53:59;19.70;99.90
64396;DHT22;50717;53.360;6.290;2022-09-09T15:56:26;19.80;99.90
64396;DHT22;50717;53.360;6.290;2022-09-09T15:58:53;19.60;99.90
64396;DHT22;50717;53.360;6.290;2022-09-09T16:01:19;19.30;99.90
64396;DHT22;50717;53.360;6.290;2022-09-09T16:03:45;19.20;99.90
64396;DHT22;50717;53.360;6.290;2022-09-09T16:06:13;19.40;99.90
64396;DHT22;50717;53.360;6.290;2022-09-09T16:08:41;19.20;99.90
64396;DHT22;50717;53.360;6.290;2022-09-09T16:11:15;19.10;99.90
64396;DHT22;50717;53.360;6.290;2022-09-09T16:13:43;19.00;99.90
64396;DHT22;50717;53.360;6.290;2022-09-09T16:16:11;18.70;99.90
64396;DHT22;50717;53.360;6.290;2022-09-09T16:18:40;18.20;99.90
64396;DHT22;50717;53.360;6.290;2022-09-09T16:21:07;18.30;99.90
64396;DHT22;50717;53.360;6.290;2022-09-09T16:23:36;17.90;99.90
64396;DHT22;50717;53.360;6.290;2022-09-09T16:26:02;18.10;99.90
64396;DHT22;50717;53.360;6.290;2022-09-09T16:28:28;18.40;99.90
64396;DHT22;50717;53.360;6.290;2022-09-09T16:30:54;18.00;99.90
64396;DHT22;50717;53.360;6.290;2022-09-09T16:33:20;17.80;99.90
64396;DHT22;50717;53.360;6.290;2022-09-09T16:35:47;17.90;99.90
64396;DHT22;50717;53.360;6.290;2022-09-09T16:38:14;18.10;99.90
64396;DHT22;50717;53.360;6.290;2022-09-09T16:40:40;17.80;99.90
64396;DHT22;50717;53.360;6.290;2022-09-09T16:43:07;17.80;99.90
64396;DHT22;50717;53.360;6.290;2022-09-09T16:45:44;17.60;99.90
64396;DHT22;50717;53.360;6.290;2022-09-09T16:48:10;17.60;99.90
64396;DHT22;50717;53.360;6.290;2022-09-09T16:50:36;17.50;99.90
64396;DHT22;50717;53.360;6.290;2022-09-09T16:53:02;17.00;99.90
64396;DHT22;50717;53.360;6.290;2022-09-09T16:55:32;18.00;99.90
64396;DHT22;50717;53.360;6.290;2022-09-09T16:57:57;17.70;99.90
64396;DHT22;50717;53.360;6.290;2022-09-09T17:00:23;17.50;99.90
64396;DHT22;50717;53.360;6.290;2022-09-09T17:02:49;17.80;99.90
64396;DHT22;50717;53.360;6.290;2022-09-09T17:05:14;17.70;99.90
64396;DHT22;50717;53.360;6.290;2022-09-09T17:07:40;18.10;99.90
64396;DHT22;50717;53.360;6.290;2022-09-09T17:10:06;17.80;99.90
64396;DHT22;50717;53.360;6.290;2022-09-09T17:12:32;17.60;99.90
64396;DHT22;50717;53.360;6.290;2022-09-09T17:14:58;17.60;99.90
64396;DHT22;50717;53.360;6.290;2022-09-09T17:17:26;17.70;99.90
64396;DHT22;50717;53.360;6.290;2022-09-09T17:19:52;17.80;99.90
64396;DHT22;50717;53.360;6.290;2022-09-09T17:22:18;17.80;99.90
64396;DHT22;50717;53.360;6.290;2022-09-09T17:24:45;17.40;99.90
64396;DHT22;50717;53.360;6.290;2022-09-09T17:27:11;17.70;99.90
64396;DHT22;50717;53.360;6.290;2022-09-09T17:29:38;17.50;99.90
64396;DHT22;50717;53.360;6.290;2022-09-09T17:32:04;17.90;99.90
64396;DHT22;50717;53.360;6.290;2022-09-09T17:34:31;17.60;99.90
64396;DHT22;50717;53.360;6.290;2022-09-09T17:36:56;17.40;99.90
64396;DHT22;50717;53.360;6.290;2022-09-09T17:39:22;17.50;99.90
64396;DHT22;50717;53.360;6.290;2022-09-09T17:41:48;17.60;99.90
64396;DHT22;50717;53.360;6.290;2022-09-09T17:44:14;17.60;99.90
64396;DHT22;50717;53.360;6.290;2022-09-09T17:46:42;16.70;99.90
64396;DHT22;50717;53.360;6.290;2022-09-09T17:49:13;17.70;99.90
64396;DHT22;50717;53.360;6.290;2022-09-09T17:51:40;17.50;99.90
64396;DHT22;50717;53.360;6.290;2022-09-09T17:54:12;17.00;99.90
64396;DHT22;50717;53.360;6.290;2022-09-09T17:56:40;17.40;99.90
64396;DHT22;50717;53.360;6.290;2022-09-09T17:59:07;17.30;99.90
64396;DHT22;50717;53.360;6.290;2022-09-09T18:01:36;17.30;99.90
64396;DHT22;50717;53.360;6.290;2022-09-09T18:04:05;17.00;99.90
64396;DHT22;50717;53.360;6.290;2022-09-09T18:06:37;17.20;99.90
64396;DHT22;50717;53.360;6.290;2022-09-09T18:09:05;17.20;99.90
64396;DHT22;50717;53.360;6.290;2022-09-09T18:11:35;17.30;99.90
64396;DHT22;50717;53.360;6.290;2022-09-09T18:14:04;17.20;99.90